sensor_id;sensor_type;location;lat;lon;timestamp;pressure;altitude;pressure_sealevel;temperature;humidity
75923;BME280;64602;47.542;19.090;2023-02-14T05:59:53;102027.59;;;0.15;85.73
75923;BME280;64602;47.542;19.090;2023-02-14T06:04:55;102050.59;;;0.26;85.72
75923;BME280;64602;47.542;19.090;2023-02-14T06:09:57;102049.91;;;0.24;85.91
75923;BME280;64602;47.542;19.090;2023-02-14T06:14:59;102038.25;;;0.15;85.73
75923;BME280;64602;47.542;19.090;2023-02-14T06:20:02;102029.97;;;0.18;85.48
75923;BME280;64602;47.542;19.090;2023-02-14T06:25:04;102043.44;;;0.27;85.16
75923;BME280;64602;47.542;19.090;2023-02-14T06:30:07;102063.53;;;0.31;84.89
75923;BME280;64602;47.542;19.090;2023-02-14T06:35:10;102065.78;;;0.26;84.70
75923;BME280;64602;47.542;19.090;2023-02-14T06:40:12;102092.44;;;0.45;84.84
75923;BME280;64602;47.542;19.090;2023-02-14T06:45:15;102085.00;;;0.49;84.83
75923;BME280;64602;47.542;19.090;2023-02-14T06:50:17;102104.78;;;0.75;84.76
75923;BME280;64602;47.542;19.090;2023-02-14T06:55:19;102102.91;;;0.85;84.79
75923;BME280;64602;47.542;19.090;2023-02-14T07:00:21;102107.78;;;1.00;84.30
75923;BME280;64602;47.542;19.090;2023-02-14T07:05:24;102095.66;;;1.05;83.89
75923;BME280;64602;47.542;19.090;2023-02-14T07:10:26;102094.16;;;1.21;83.50
75923;BME280;64602;47.542;19.090;2023-02-14T07:15:28;102120.53;;;1.43;83.19
75923;BME280;64602;47.542;19.090;2023-02-14T07:20:31;102109.84;;;1.61;82.79
75923;BME280;64602;47.542;19.090;2023-02-14T07:25:33;102115.00;;;1.90;82.09
75923;BME280;64602;47.542;19.090;2023-02-14T07:30:35;102117.75;;;2.17;81.75
75923;BME280;64602;47.542;19.090;2023-02-14T07:35:37;102111.69;;;2.32;81.17
75923;BME280;64602;47.542;19.090;2023-02-14T07:40:39;102110.06;;;2.58;80.66
75923;BME280;64602;47.542;19.090;2023-02-14T07:45:41;102127.72;;;2.94;80.16
75923;BME280;64602;47.542;19.090;2023-02-14T07:50:43;102132.25;;;3.28;79.27
75923;BME280;64602;47.542;19.090;2023-02-14T07:55:48;102121.06;;;3.49;78.02
75923;BME280;64602;47.542;19.090;2023-02-14T08:00:51;102141.97;;;3.88;76.75
75923;BME280;64602;47.542;19.090;2023-02-14T08:05:53;102130.63;;;4.11;75.68
75923;BME280;64602;47.542;19.090;2023-02-14T08:10:58;102145.41;;;4.56;74.54
75923;BME280;64602;47.542;19.090;2023-02-14T08:16:01;102130.75;;;4.91;73.25
75923;BME280;64602;47.542;19.090;2023-02-14T08:21:08;102134.69;;;5.20;71.54
75923;BME280;64602;47.542;19.090;2023-02-14T08:26:11;102146.50;;;5.50;69.83
75923;BME280;64602;47.542;19.090;2023-02-14T08:31:27;102137.19;;;5.61;69.09
75923;BME280;64602;47.542;19.090;2023-02-14T08:36:37;102136.56;;;5.59;67.89
75923;BME280;64602;47.542;19.090;2023-02-14T08:41:39;102137.78;;;5.79;67.23
75923;BME280;64602;47.542;19.090;2023-02-14T08:46:41;102152.47;;;6.08;66.18
75923;BME280;64602;47.542;19.090;2023-02-14T08:51:43;102139.22;;;6.21;65.74
75923;BME280;64602;47.542;19.090;2023-02-14T08:56:45;102144.34;;;6.54;64.50
75923;BME280;64602;47.542;19.090;2023-02-14T09:01:47;102152.56;;;6.60;63.95
75923;BME280;64602;47.542;19.090;2023-02-14T09:06:49;102133.91;;;6.89;63.14
75923;BME280;64602;47.542;19.090;2023-02-14T09:11:51;102136.53;;;7.26;62.42
75923;BME280;64602;47.542;19.090;2023-02-14T09:16:53;102144.22;;;7.44;60.91
75923;BME280;64602;47.542;19.090;2023-02-14T09:21:56;102140.47;;;7.75;60.56
75923;BME280;64602;47.542;19.090;2023-02-14T09:26:58;102143.25;;;8.03;59.79
75923;BME280;64602;47.542;19.090;2023-02-14T09:32:03;102144.78;;;7.91;59.33
75923;BME280;64602;47.542;19.090;2023-02-14T09:37:06;102141.91;;;8.14;59.16
75923;BME280;64602;47.542;19.090;2023-02-14T09:47:44;102159.56;;;8.74;57.01
75923;BME280;64602;47.542;19.090;2023-02-14T09:52:51;102155.22;;;9.08;56.25
75923;BME280;64602;47.542;19.090;2023-02-14T09:57:57;102156.72;;;9.52;54.83
75923;BME280;64602;47.542;19.090;2023-02-14T10:03:30;102154.16;;;9.44;54.38
75923;BME280;64602;47.542;19.090;2023-02-14T10:14:11;102162.50;;;9.91;53.83
75923;BME280;64602;47.542;19.090;2023-02-14T10:19:25;102157.38;;;10.89;50.17
75923;BME280;64602;47.542;19.090;2023-02-14T10:29:36;102158.75;;;15.03;40.39
75923;BME280;64602;47.542;19.090;2023-02-14T10:34:47;102144.25;;;15.55;40.25
75923;BME280;64602;47.542;19.090;2023-02-14T10:56:33;102151.16;;;26.20;22.42
75923;BME280;64602;47.542;19.090;2023-02-14T11:01:36;102142.94;;;29.56;18.99
75923;BME280;64602;47.542;19.090;2023-02-14T11:06:38;102135.28;;;30.37;17.75
75923;BME280;64602;47.542;19.090;2023-02-14T11:11:59;102137.31;;;33.32;16.31
75923;BME280;64602;47.542;19.090;2023-02-14T11:17:29;102128.87;;;33.00;15.10
75923;BME280;64602;47.542;19.090;2023-02-14T11:22:33;102142.00;;;34.57;13.54
75923;BME280;64602;47.542;19.090;2023-02-14T11:27:36;102138.53;;;34.24;13.95
75923;BME280;64602;47.542;19.090;2023-02-14T11:32:38;102132.69;;;35.52;13.38
75923;BME280;64602;47.542;19.090;2023-02-14T11:37:50;102129.06;;;35.82;12.83
75923;BME280;64602;47.542;19.090;2023-02-14T11:42:53;102120.97;;;34.74;13.07
75923;BME280;64602;47.542;19.090;2023-02-14T11:48:24;102120.97;;;35.80;12.18
75923;BME280;64602;47.542;19.090;2023-02-14T11:53:44;102120.91;;;35.20;12.42
75923;BME280;64602;47.542;19.090;2023-02-14T11:59:02;102111.22;;;34.48;15.72
75923;BME280;64602;47.542;19.090;2023-02-14T12:04:14;102097.25;;;24.74;21.14
75923;BME280;64602;47.542;19.090;2023-02-14T12:14:27;102103.84;;;33.62;13.55
75923;BME280;64602;47.542;19.090;2023-02-14T12:25:18;102100.03;;;32.71;13.71
75923;BME280;64602;47.542;19.090;2023-02-14T12:30:24;102076.31;;;29.79;15.48
75923;BME280;64602;47.542;19.090;2023-02-14T12:40:45;102039.28;;;22.01;23.24
75923;BME280;64602;47.542;19.090;2023-02-14T12:46:16;102036.87;;;23.86;21.45
75923;BME280;64602;47.542;19.090;2023-02-14T12:51:46;102027.31;;;20.61;24.96
75923;BME280;64602;47.542;19.090;2023-02-14T13:02:51;102031.38;;;23.43;22.38
75923;BME280;64602;47.542;19.090;2023-02-14T13:13:50;102021.56;;;17.53;30.29
75923;BME280;64602;47.542;19.090;2023-02-14T13:19:00;102031.56;;;25.70;19.97
75923;BME280;64602;47.542;19.090;2023-02-14T13:24:21;102033.44;;;28.94;16.85
75923;BME280;64602;47.542;19.090;2023-02-14T13:29:30;102032.44;;;26.86;18.05
75923;BME280;64602;47.542;19.090;2023-02-14T13:34:38;102019.69;;;25.05;19.94
75923;BME280;64602;47.542;19.090;2023-02-14T13:39:49;102014.84;;;25.61;19.55
75923;BME280;64602;47.542;19.090;2023-02-14T13:44:53;102010.22;;;21.24;23.75
75923;BME280;64602;47.542;19.090;2023-02-14T13:50:01;101996.56;;;16.61;30.04
75923;BME280;64602;47.542;19.090;2023-02-14T13:55:13;101987.78;;;14.25;34.81
75923;BME280;64602;47.542;19.090;2023-02-14T14:10:42;101990.03;;;12.22;39.41
75923;BME280;64602;47.542;19.090;2023-02-14T14:16:18;101981.81;;;12.03;39.84
75923;BME280;64602;47.542;19.090;2023-02-14T14:21:41;101991.44;;;11.42;40.73
75923;BME280;64602;47.542;19.090;2023-02-14T14:31:49;101994.19;;;10.97;41.69
75923;BME280;64602;47.542;19.090;2023-02-14T14:37:01;101979.63;;;10.78;42.34
75923;BME280;64602;47.542;19.090;2023-02-14T14:42:14;101984.22;;;10.78;42.85
75923;BME280;64602;47.542;19.090;2023-02-14T14:47:21;101980.53;;;10.59;43.17
75923;BME280;64602;47.542;19.090;2023-02-14T14:52:31;101975.53;;;10.42;43.63
75923;BME280;64602;47.542;19.090;2023-02-14T14:57:38;101984.16;;;13.17;39.06
75923;BME280;64602;47.542;19.090;2023-02-14T15:02:40;101989.75;;;18.17;29.93
75923;BME280;64602;47.542;19.090;2023-02-14T15:07:43;102004.47;;;19.79;27.62
75923;BME280;64602;47.542;19.090;2023-02-14T15:12:45;102019.34;;;20.14;26.90
75923;BME280;64602;47.542;19.090;2023-02-14T15:18:06;101998.94;;;19.94;26.85
75923;BME280;64602;47.542;19.090;2023-02-14T15:23:21;102003.88;;;19.61;27.50
75923;BME280;64602;47.542;19.090;2023-02-14T15:28:27;102004.47;;;18.85;28.52
75923;BME280;64602;47.542;19.090;2023-02-14T15:33:30;101983.09;;;15.70;33.09
75923;BME280;64602;47.542;19.090;2023-02-14T15:38:39;101988.31;;;13.01;38.66
75923;BME280;64602;47.542;19.090;2023-02-14T15:43:48;101981.56;;;11.48;42.64
75923;BME280;64602;47.542;19.090;2023-02-14T15:48:57;101962.97;;;10.55;44.58
75923;BME280;64602;47.542;19.090;2023-02-14T15:54:04;101984.09;;;9.73;47.44
75923;BME280;64602;47.542;19.090;2023-02-14T15:59:22;101992.56;;;9.36;48.99
75923;BME280;64602;47.542;19.090;2023-02-14T16:04:30;101989.16;;;9.08;49.28
75923;BME280;64602;47.542;19.090;2023-02-14T16:09:33;101985.44;;;8.67;49.92
75923;BME280;64602;47.542;19.090;2023-02-14T16:14:35;101987.91;;;8.34;51.06
75923;BME280;64602;47.542;19.090;2023-02-14T16:19:43;102006.31;;;8.17;51.63
75923;BME280;64602;47.542;19.090;2023-02-14T16:24:48;101998.63;;;7.92;52.22
75923;BME280;64602;47.542;19.090;2023-02-14T16:29:51;102016.13;;;7.75;53.02
75923;BME280;64602;47.542;19.090;2023-02-14T16:34:53;102001.72;;;7.46;53.53
75923;BME280;64602;47.542;19.090;2023-02-14T16:39:55;102002.59;;;7.32;54.06
75923;BME280;64602;47.542;19.090;2023-02-14T16:44:58;102015.69;;;7.14;54.66
75923;BME280;64602;47.542;19.090;2023-02-14T16:50:01;102019.31;;;7.06;55.08
75923;BME280;64602;47.542;19.090;2023-02-14T16:55:03;102027.78;;;7.03;55.46
75923;BME280;64602;47.542;19.090;2023-02-14T17:00:06;102015.91;;;6.82;56.02
75923;BME280;64602;47.542;19.090;2023-02-14T17:05:10;102013.84;;;6.70;56.26
75923;BME280;64602;47.542;19.090;2023-02-14T17:10:17;102039.16;;;6.69;56.86
75923;BME280;64602;47.542;19.090;2023-02-14T17:15:20;102036.09;;;6.57;57.35
75923;BME280;64602;47.542;19.090;2023-02-14T17:20:25;102036.06;;;6.42;57.51
75923;BME280;64602;47.542;19.090;2023-02-14T17:25:28;102050.19;;;6.29;58.26
75923;BME280;64602;47.542;19.090;2023-02-14T17:30:30;102058.16;;;6.23;58.75
75923;BME280;64602;47.542;19.090;2023-02-14T17:35:36;102036.97;;;5.96;59.30
75923;BME280;64602;47.542;19.090;2023-02-14T17:40:38;102032.63;;;5.87;59.69
75923;BME280;64602;47.542;19.090;2023-02-14T17:45:41;102048.81;;;5.87;60.08
75923;BME280;64602;47.542;19.090;2023-02-14T17:50:43;102034.59;;;5.70;60.35
75923;BME280;64602;47.542;19.090;2023-02-14T17:55:45;102056.00;;;5.72;60.86
75923;BME280;64602;47.542;19.090;2023-02-14T18:00:47;102053.84;;;5.67;61.62
75923;BME280;64602;47.542;19.090;2023-02-14T18:05:49;102035.06;;;5.51;61.86
75923;BME280;64602;47.542;19.090;2023-02-14T18:10:51;102040.47;;;5.51;62.57
75923;BME280;64602;47.542;19.090;2023-02-14T18:15:54;102046.75;;;5.43;63.04
75923;BME280;64602;47.542;19.090;2023-02-14T18:20:58;102054.72;;;5.37;63.56
75923;BME280;64602;47.542;19.090;2023-02-14T18:26:03;102038.62;;;5.20;63.69
75923;BME280;64602;47.542;19.090;2023-02-14T18:31:08;102026.69;;;5.23;63.82
75923;BME280;64602;47.542;19.090;2023-02-14T18:36:13;102030.72;;;5.19;64.11
75923;BME280;64602;47.542;19.090;2023-02-14T18:41:18;102013.47;;;5.05;64.26
75923;BME280;64602;47.542;19.090;2023-02-14T18:46:23;102016.69;;;5.00;64.55
75923;BME280;64602;47.542;19.090;2023-02-14T18:51:30;102020.25;;;4.92;64.81
75923;BME280;64602;47.542;19.090;2023-02-14T18:56:35;102021.44;;;4.90;65.12
75923;BME280;64602;47.542;19.090;2023-02-14T19:01:43;102041.44;;;4.87;65.29
75923;BME280;64602;47.542;19.090;2023-02-14T19:06:45;102036.78;;;4.81;65.62
75923;BME280;64602;47.542;19.090;2023-02-14T19:11:48;102023.37;;;4.65;66.10
75923;BME280;64602;47.542;19.090;2023-02-14T19:16:50;102027.91;;;4.56;66.35
75923;BME280;64602;47.542;19.090;2023-02-14T19:21:57;102032.00;;;4.52;66.52
75923;BME280;64602;47.542;19.090;2023-02-14T19:26:59;102038.19;;;4.53;66.99
75923;BME280;64602;47.542;19.090;2023-02-14T19:32:01;102041.41;;;4.48;67.29
75923;BME280;64602;47.542;19.090;2023-02-14T19:37:03;102030.34;;;4.35;67.71
75923;BME280;64602;47.542;19.090;2023-02-14T19:42:06;102036.38;;;4.37;68.01
75923;BME280;64602;47.542;19.090;2023-02-14T19:47:08;102037.91;;;4.23;68.19
75923;BME280;64602;47.542;19.090;2023-02-14T19:52:29;102042.09;;;4.17;68.69
75923;BME280;64602;47.542;19.090;2023-02-14T19:57:32;102032.69;;;4.05;69.02
75923;BME280;64602;47.542;19.090;2023-02-14T20:02:34;102046.47;;;4.02;69.62
75923;BME280;64602;47.542;19.090;2023-02-14T20:07:36;102037.75;;;3.92;69.68
75923;BME280;64602;47.542;19.090;2023-02-14T20:12:38;102036.75;;;3.84;70.00
75923;BME280;64602;47.542;19.090;2023-02-14T20:17:40;102035.72;;;3.77;70.46
75923;BME280;64602;47.542;19.090;2023-02-14T20:22:42;102030.16;;;3.71;70.57
75923;BME280;64602;47.542;19.090;2023-02-14T20:27:44;102031.69;;;3.65;71.00
75923;BME280;64602;47.542;19.090;2023-02-14T20:32:47;102043.94;;;3.68;71.07
75923;BME280;64602;47.542;19.090;2023-02-14T20:37:51;102041.06;;;3.61;71.38
75923;BME280;64602;47.542;19.090;2023-02-14T20:42:53;102046.63;;;3.59;71.31
75923;BME280;64602;47.542;19.090;2023-02-14T20:47:55;102030.28;;;3.45;71.51
75923;BME280;64602;47.542;19.090;2023-02-14T20:52:57;102055.47;;;3.52;71.59
75923;BME280;64602;47.542;19.090;2023-02-14T20:58:00;102037.16;;;3.39;71.70
75923;BME280;64602;47.542;19.090;2023-02-14T21:03:03;102028.09;;;3.32;71.91
75923;BME280;64602;47.542;19.090;2023-02-14T21:08:05;102037.50;;;3.28;72.38
75923;BME280;64602;47.542;19.090;2023-02-14T21:13:08;102037.31;;;3.29;72.47
75923;BME280;64602;47.542;19.090;2023-02-14T21:18:10;102027.03;;;3.16;72.49
75923;BME280;64602;47.542;19.090;2023-02-14T21:23:12;102038.97;;;3.22;72.68
